createdAt,value
2023-03-02T00:00:38.655Z,16.27
2023-03-02T00:03:06.649Z,17.27
2023-03-02T00:05:34.622Z,15.33
2023-03-02T00:08:03.264Z,16.27
2023-03-02T00:10:30.687Z,18.97
2023-03-02T00:12:58.822Z,15.97
2023-03-02T00:15:25.495Z,17.20
2023-03-02T00:17:52.127Z,15.93
2023-03-02T00:20:18.824Z,15.87
2023-03-02T00:22:46.641Z,16.30
2023-03-02T00:25:15.666Z,16.33
2023-03-02T00:27:42.506Z,16.77
2023-03-02T00:30:11.989Z,16.57
2023-03-02T00:32:38.757Z,18.90
2023-03-02T00:35:06.036Z,15.63
2023-03-02T00:37:34.784Z,14.70
2023-03-02T00:40:01.348Z,16.03
2023-03-02T00:42:28.053Z,15.57
2023-03-02T00:44:54.746Z,17.33
2023-03-02T00:47:21.411Z,16.10
2023-03-02T00:49:49.499Z,15.23
2023-03-02T00:52:17.242Z,15.67
2023-03-02T00:54:46.636Z,16.00
2023-03-02T00:57:13.805Z,15.90
2023-03-02T00:59:40.945Z,15.37
2023-03-02T01:02:30.612Z,15.47
2023-03-02T01:04:57.640Z,14.43
2023-03-02T01:07:28.536Z,15.97
2023-03-02T01:09:55.333Z,16.77
2023-03-02T01:12:22.406Z,15.60
2023-03-02T01:14:50.864Z,16.70
2023-03-02T01:17:19.029Z,17.67
2023-03-02T01:19:45.737Z,17.03
2023-03-02T01:22:12.416Z,14.80
2023-03-02T01:24:39.034Z,14.50
2023-03-02T01:27:05.678Z,14.87
2023-03-02T01:29:32.277Z,15.13
2023-03-02T01:31:59.807Z,15.63
2023-03-02T01:34:26.767Z,16.40
2023-03-02T01:36:53.444Z,15.50
2023-03-02T01:39:22.484Z,15.87
2023-03-02T01:41:51.782Z,16.30
2023-03-02T01:44:36.781Z,16.03
2023-03-02T01:47:25.495Z,13.77
2023-03-02T01:50:24.810Z,16.20
2023-03-02T01:52:56.447Z,17.70
2023-03-02T01:55:27.377Z,15.50
2023-03-02T01:57:56.073Z,16.30
2023-03-02T02:00:33.369Z,17.03
2023-03-02T02:03:09.011Z,17.80
2023-03-02T02:05:42.955Z,16.83
2023-03-02T02:08:10.496Z,15.40
2023-03-02T02:10:39.741Z,16.70
2023-03-02T02:13:10.790Z,15.23
2023-03-02T02:15:40.316Z,17.00
2023-03-02T02:18:07.854Z,17.60
2023-03-02T02:20:45.265Z,17.60
2023-03-02T02:23:43.431Z,15.97
2023-03-02T02:26:25.772Z,15.27
2023-03-02T02:28:57.984Z,17.77
2023-03-02T02:31:45.720Z,16.63
2023-03-02T02:34:23.749Z,17.37
2023-03-02T02:36:56.521Z,15.87
2023-03-02T02:39:29.092Z,17.53
2023-03-02T02:42:00.466Z,15.90
2023-03-02T02:44:28.445Z,17.00
2023-03-02T02:46:55.058Z,15.17
2023-03-02T02:49:30.453Z,18.67
2023-03-02T02:51:58.515Z,17.73
2023-03-02T02:54:26.538Z,16.47
2023-03-02T02:56:54.460Z,15.77
2023-03-02T02:59:31.858Z,15.80
2023-03-02T03:02:00.231Z,16.27
2023-03-02T03:04:31.169Z,14.90
2023-03-02T03:07:03.692Z,15.77
2023-03-02T03:09:31.793Z,14.43
2023-03-02T03:12:04.328Z,16.40
2023-03-02T03:14:39.385Z,15.50
2023-03-02T03:17:16.144Z,15.13
2023-03-02T03:19:53.900Z,15.57
2023-03-02T03:22:20.598Z,14.60
2023-03-02T03:24:49.448Z,18.47
2023-03-02T03:27:18.397Z,15.23
2023-03-02T03:29:48.314Z,15.47
2023-03-02T03:32:19.576Z,15.90
2023-03-02T03:34:47.482Z,15.70
2023-03-02T03:37:40.861Z,16.77
2023-03-02T03:40:10.152Z,14.73
2023-03-02T03:42:39.858Z,15.80
2023-03-02T03:45:08.723Z,15.27
2023-03-02T03:47:36.056Z,15.30
2023-03-02T03:50:04.673Z,14.17
2023-03-02T03:52:31.660Z,15.43
2023-03-02T03:55:08.805Z,14.80
2023-03-02T03:57:35.519Z,14.73
2023-03-02T04:00:02.831Z,16.27
2023-03-02T04:02:41.289Z,14.80
2023-03-02T04:05:09.125Z,14.63
2023-03-02T04:07:38.140Z,14.93
2023-03-02T04:10:07.490Z,15.90
2023-03-02T04:12:38.731Z,14.83
2023-03-02T04:15:08.250Z,16.73
2023-03-02T04:17:35.471Z,15.30
2023-03-02T04:20:07.746Z,15.77
2023-03-02T04:22:35.321Z,14.77
2023-03-02T04:25:02.941Z,15.77
2023-03-02T04:27:30.284Z,15.97
2023-03-02T04:29:56.978Z,14.60
2023-03-02T04:32:23.662Z,15.10
2023-03-02T04:34:54.249Z,15.17
2023-03-02T04:37:21.424Z,14.43
2023-03-02T04:39:51.478Z,17.07
2023-03-02T04:42:19.730Z,18.63
2023-03-02T04:44:52.035Z,15.50
2023-03-02T04:47:18.680Z,16.03
2023-03-02T04:49:45.303Z,16.70
2023-03-02T04:52:11.858Z,15.50
2023-03-02T04:54:38.510Z,14.93
2023-03-02T04:57:05.132Z,16.37
2023-03-02T04:59:31.937Z,17.43
2023-03-02T05:02:00.913Z,16.70
2023-03-02T05:04:28.852Z,17.20
2023-03-02T05:06:55.915Z,15.87
2023-03-02T05:09:27.207Z,15.50
2023-03-02T05:12:00.232Z,16.30
2023-03-02T05:14:27.658Z,16.70
2023-03-02T05:16:54.318Z,15.97
2023-03-02T05:19:22.856Z,17.50
2023-03-02T05:21:49.517Z,15.90
2023-03-02T05:24:16.171Z,18.53
2023-03-02T05:26:42.745Z,17.83
2023-03-02T05:29:09.691Z,16.70
2023-03-02T05:31:39.404Z,16.47
2023-03-02T05:34:08.939Z,16.43
2023-03-02T05:36:36.200Z,15.33
2023-03-02T05:39:03.888Z,16.80
2023-03-02T05:41:31.047Z,14.93
2023-03-02T05:43:57.822Z,16.60
2023-03-02T05:46:24.680Z,17.30
2023-03-02T05:48:51.408Z,17.27
2023-03-02T05:51:18.180Z,15.90
2023-03-02T05:53:44.765Z,15.50
2023-03-02T05:56:11.386Z,20.80
2023-03-02T05:58:38.032Z,21.07
2023-03-02T06:01:10.124Z,18.07
2023-03-02T06:03:36.997Z,19.30
2023-03-02T06:06:03.826Z,17.57
2023-03-02T06:08:30.430Z,14.80
2023-03-02T06:10:57.674Z,15.90
2023-03-02T06:13:24.372Z,16.40
2023-03-02T06:15:51.034Z,17.40
2023-03-02T06:18:17.626Z,16.50
2023-03-02T06:20:44.338Z,15.03
2023-03-02T06:23:12.002Z,17.30
2023-03-02T06:25:41.258Z,17.70
2023-03-02T06:28:07.893Z,16.33
2023-03-02T06:30:34.749Z,15.93
2023-03-02T06:33:01.770Z,17.50
2023-03-02T06:35:29.084Z,16.20
2023-03-02T06:37:55.748Z,16.10
2023-03-02T06:40:22.341Z,17.60
2023-03-02T06:42:49.048Z,14.23
2023-03-02T06:45:15.732Z,16.93
2023-03-02T06:47:42.287Z,15.80
2023-03-02T06:50:11.824Z,17.60
2023-03-02T06:52:38.704Z,15.97
2023-03-02T06:55:07.140Z,14.27
2023-03-02T06:57:34.298Z,16.77
2023-03-02T07:00:02.630Z,16.20
2023-03-02T07:02:29.338Z,14.70
2023-03-02T07:04:55.939Z,15.47
2023-03-02T07:07:22.564Z,14.83
2023-03-02T07:09:49.118Z,16.17
2023-03-02T07:12:15.845Z,15.10
2023-03-02T07:14:42.465Z,15.93
2023-03-02T07:17:09.199Z,16.20
2023-03-02T07:19:35.970Z,16.10
2023-03-02T07:22:02.545Z,14.60
2023-03-02T07:24:29.146Z,14.27
2023-03-02T07:26:55.737Z,15.07
2023-03-02T07:29:22.337Z,16.60
2023-03-02T07:31:49.008Z,15.00
2023-03-02T07:34:16.304Z,13.87
2023-03-02T07:36:42.947Z,13.77
2023-03-02T07:39:09.608Z,14.03
2023-03-02T07:41:36.298Z,13.23
2023-03-02T07:44:02.952Z,15.37
2023-03-02T07:46:29.600Z,11.00
2023-03-02T07:48:56.286Z,15.03
2023-03-02T07:51:22.916Z,13.90
2023-03-02T07:53:49.471Z,14.80
2023-03-02T07:56:16.145Z,14.10
2023-03-02T07:58:42.933Z,15.10
2023-03-02T08:01:09.577Z,14.90
2023-03-02T08:03:36.951Z,14.67
2023-03-02T08:06:09.692Z,14.00
2023-03-02T08:08:37.146Z,13.90
2023-03-02T08:11:13.171Z,14.60
2023-03-02T08:13:40.209Z,12.43
2023-03-02T08:16:09.048Z,14.63
2023-03-02T08:18:36.623Z,15.50
2023-03-02T08:21:04.014Z,15.60
2023-03-02T08:23:30.600Z,14.67
2023-03-02T08:25:57.210Z,14.20
2023-03-02T08:28:23.900Z,15.90
2023-03-02T08:30:58.116Z,14.37
2023-03-02T08:33:25.980Z,14.10
2023-03-02T08:36:07.629Z,16.87
2023-03-02T08:38:34.969Z,14.67
2023-03-02T08:41:07.294Z,15.63
2023-03-02T08:43:34.130Z,14.10
2023-03-02T08:46:01.010Z,15.97
2023-03-02T08:48:28.733Z,14.57
2023-03-02T08:50:59.063Z,15.20
2023-03-02T08:53:26.928Z,13.30
2023-03-02T08:55:53.539Z,13.20
2023-03-02T08:58:20.540Z,15.80
2023-03-02T09:00:48.078Z,14.70
2023-03-02T09:03:15.222Z,14.93
2023-03-02T09:05:41.862Z,13.83
2023-03-02T09:08:08.926Z,14.63
2023-03-02T09:10:35.757Z,13.13
2023-03-02T09:13:02.826Z,14.03
2023-03-02T09:15:29.472Z,14.57
2023-03-02T09:17:56.290Z,14.23
2023-03-02T09:20:23.176Z,16.30
2023-03-02T09:22:50.848Z,13.60
2023-03-02T09:25:18.767Z,13.90
2023-03-02T09:27:46.836Z,14.63
2023-03-02T09:30:14.753Z,14.90
2023-03-02T09:32:41.902Z,14.80
2023-03-02T09:35:08.850Z,13.10
2023-03-02T09:37:38.647Z,15.23
2023-03-02T09:40:14.345Z,13.10
2023-03-02T09:43:14.654Z,14.20
2023-03-02T09:46:18.351Z,12.93
2023-03-02T09:48:56.462Z,12.63
2023-03-02T09:51:39.235Z,11.13
2023-03-02T09:54:14.237Z,11.73
2023-03-02T09:56:47.340Z,13.07
2023-03-02T09:59:20.136Z,11.87
2023-03-02T10:02:01.384Z,13.67
2023-03-02T10:04:33.385Z,11.07
2023-03-02T10:07:12.903Z,11.53
2023-03-02T10:09:40.866Z,11.20
2023-03-02T10:12:35.494Z,11.00
2023-03-02T10:15:25.996Z,12.33
2023-03-02T10:18:03.963Z,11.60
2023-03-02T10:20:37.984Z,11.80
2023-03-02T10:23:42.387Z,10.83
2023-03-02T10:26:14.963Z,9.80
2023-03-02T10:28:47.302Z,11.10
2023-03-02T10:31:25.875Z,9.57
2023-03-02T10:33:52.980Z,8.80
2023-03-02T10:36:27.824Z,9.13
2023-03-02T10:38:56.198Z,9.00
2023-03-02T10:41:33.134Z,10.07
2023-03-02T10:44:06.274Z,10.93
2023-03-02T10:46:44.346Z,8.77
2023-03-02T10:49:23.762Z,9.07
2023-03-02T10:51:56.471Z,9.17
2023-03-02T10:54:23.511Z,10.30
2023-03-02T10:56:52.738Z,9.80
2023-03-02T10:59:26.062Z,8.47
2023-03-02T11:02:01.564Z,8.67
2023-03-02T11:04:29.603Z,8.30
2023-03-02T11:07:06.801Z,9.00
2023-03-02T11:09:33.424Z,10.87
2023-03-02T11:12:01.038Z,8.77
2023-03-02T11:14:27.665Z,7.67
2023-03-02T11:16:54.747Z,8.00
2023-03-02T11:19:31.071Z,7.93
2023-03-02T11:22:21.025Z,9.30
2023-03-02T11:24:55.688Z,9.13
2023-03-02T11:27:28.045Z,10.13
2023-03-02T11:30:10.125Z,8.93
2023-03-02T11:32:58.286Z,9.87
2023-03-02T11:35:31.356Z,9.43
2023-03-02T11:38:23.441Z,8.23
2023-03-02T11:41:00.220Z,8.80
2023-03-02T11:43:27.061Z,8.60
2023-03-02T11:46:13.953Z,10.63
2023-03-02T11:48:48.925Z,9.17
2023-03-02T11:51:23.974Z,8.80
2023-03-02T11:54:03.671Z,9.60
2023-03-02T11:56:33.458Z,9.00
2023-03-02T11:59:07.440Z,8.93
2023-03-02T12:01:36.217Z,7.23
2023-03-02T12:04:24.916Z,6.77
2023-03-02T12:06:51.640Z,7.40
2023-03-02T12:09:24.262Z,7.03
2023-03-02T12:11:56.860Z,5.93
2023-03-02T12:14:28.557Z,8.30
2023-03-02T12:17:24.744Z,7.73
2023-03-02T12:20:23.458Z,5.80
2023-03-02T12:22:50.346Z,6.37
2023-03-02T12:25:20.019Z,5.97
2023-03-02T12:27:53.074Z,6.73
2023-03-02T12:30:26.257Z,6.87
2023-03-02T12:33:02.115Z,6.87
2023-03-02T12:35:31.716Z,7.33
2023-03-02T12:38:06.676Z,8.33
2023-03-02T12:40:58.783Z,6.80
2023-03-02T12:43:37.093Z,6.53
2023-03-02T12:46:28.081Z,7.97
2023-03-02T12:49:16.132Z,6.33
2023-03-02T12:51:45.728Z,6.43
2023-03-02T12:54:15.670Z,6.20
2023-03-02T12:56:42.580Z,7.67
2023-03-02T12:59:25.281Z,7.50
2023-03-02T13:01:52.334Z,7.47
2023-03-02T13:04:26.823Z,9.70
2023-03-02T13:06:54.059Z,7.17
2023-03-02T13:09:21.622Z,8.00
2023-03-02T13:11:49.831Z,7.13
2023-03-02T13:14:27.475Z,6.80
2023-03-02T13:17:04.265Z,8.23
2023-03-02T13:19:32.169Z,8.00
2023-03-02T13:21:59.776Z,7.27
2023-03-02T13:24:36.026Z,6.50
2023-03-02T13:27:14.541Z,7.67
2023-03-02T13:29:41.222Z,6.73
2023-03-02T13:32:41.505Z,6.77
2023-03-02T13:35:26.648Z,9.40
2023-03-02T13:38:04.834Z,5.70
2023-03-02T13:40:33.800Z,7.00
2023-03-02T13:43:00.540Z,6.93
2023-03-02T13:45:32.224Z,7.87
2023-03-02T13:48:11.920Z,6.53
2023-03-02T13:50:38.662Z,10.00
2023-03-02T13:53:07.091Z,7.30
2023-03-02T13:55:34.988Z,8.03
2023-03-02T13:58:02.448Z,7.80
2023-03-02T14:00:33.315Z,6.23
2023-03-02T14:03:00.623Z,6.80
2023-03-02T14:05:33.370Z,7.53
2023-03-02T14:08:00.979Z,8.57
2023-03-02T14:10:27.744Z,7.90
2023-03-02T14:13:05.359Z,7.97
2023-03-02T14:15:32.651Z,6.80
2023-03-02T14:18:00.527Z,8.60
2023-03-02T14:20:27.114Z,7.53
2023-03-02T14:22:53.742Z,7.97
2023-03-02T14:25:20.538Z,9.53
2023-03-02T14:27:47.563Z,8.30
2023-03-02T14:30:20.060Z,8.53
2023-03-02T14:32:47.284Z,7.60
2023-03-02T14:35:16.567Z,8.77
2023-03-02T14:37:49.369Z,8.43
2023-03-02T14:40:28.137Z,9.20
2023-03-02T14:42:54.893Z,9.80
2023-03-02T14:45:21.849Z,9.10
2023-03-02T14:47:48.922Z,9.23
2023-03-02T14:50:17.290Z,7.80
2023-03-02T14:52:51.497Z,8.37
2023-03-02T14:55:25.845Z,9.23
2023-03-02T14:58:13.228Z,9.73
2023-03-02T15:00:40.058Z,9.37
2023-03-02T15:03:06.670Z,9.17
2023-03-02T15:05:33.359Z,10.33
2023-03-02T15:07:59.997Z,11.50
2023-03-02T15:10:26.904Z,9.30
2023-03-02T15:12:53.560Z,10.87
2023-03-02T15:15:20.268Z,9.53
2023-03-02T15:17:46.904Z,10.30
2023-03-02T15:20:15.891Z,11.13
2023-03-02T15:22:42.791Z,10.63
2023-03-02T15:25:10.160Z,9.30
2023-03-02T15:27:36.838Z,9.90
2023-03-02T15:30:04.537Z,11.20
2023-03-02T15:32:31.286Z,10.93
2023-03-02T15:34:57.983Z,11.50
2023-03-02T15:37:24.715Z,10.23
2023-03-02T15:39:55.968Z,11.57
2023-03-02T15:42:23.260Z,10.40
2023-03-02T15:44:50.050Z,9.63
2023-03-02T15:47:17.031Z,9.10
2023-03-02T15:49:43.707Z,9.73
2023-03-02T15:52:10.784Z,9.03
2023-03-02T15:54:37.574Z,9.80
2023-03-02T15:57:04.729Z,11.87
2023-03-02T15:59:31.941Z,12.13
2023-03-02T16:01:59.616Z,10.60
2023-03-02T16:04:27.206Z,10.67
2023-03-02T16:06:54.969Z,10.73
2023-03-02T16:09:41.972Z,12.17
2023-03-02T16:12:08.596Z,11.27
2023-03-02T16:14:35.249Z,11.13
2023-03-02T16:17:02.076Z,10.03
2023-03-02T16:19:28.848Z,11.60
2023-03-02T16:21:55.521Z,13.57
2023-03-02T16:24:22.224Z,12.93
2023-03-02T16:26:50.888Z,11.20
2023-03-02T16:29:17.533Z,14.60
2023-03-02T16:31:48.085Z,12.70
2023-03-02T16:34:14.939Z,12.77
2023-03-02T16:36:41.894Z,14.00
2023-03-02T16:39:10.839Z,13.30
2023-03-02T16:41:39.984Z,12.07
2023-03-02T16:44:09.894Z,13.97
2023-03-02T16:46:39.983Z,12.40
2023-03-02T16:49:06.924Z,11.70
2023-03-02T16:51:33.801Z,11.60
2023-03-02T16:54:00.498Z,12.53
2023-03-02T16:56:27.153Z,13.50
2023-03-02T16:58:55.500Z,13.50
2023-03-02T17:01:22.890Z,13.17
2023-03-02T17:03:50.958Z,12.27
2023-03-02T17:06:22.405Z,11.63
2023-03-02T17:08:50.664Z,11.57
2023-03-02T17:11:17.610Z,11.77
2023-03-02T17:13:44.382Z,12.97
2023-03-02T17:16:11.636Z,11.50
2023-03-02T17:18:41.335Z,12.33
2023-03-02T17:21:08.613Z,14.30
2023-03-02T17:23:36.885Z,13.43
2023-03-02T17:26:03.823Z,16.60
2023-03-02T17:28:30.612Z,14.90
2023-03-02T17:30:57.418Z,13.87
2023-03-02T17:33:24.175Z,14.47
2023-03-02T17:35:51.506Z,12.83
2023-03-02T17:38:18.416Z,14.03
2023-03-02T17:40:45.112Z,13.60
2023-03-02T17:43:12.725Z,15.03
2023-03-02T17:45:39.757Z,13.83
2023-03-02T17:48:06.472Z,14.03
2023-03-02T17:50:33.277Z,14.03
2023-03-02T17:53:00.447Z,13.60
2023-03-02T17:55:30.361Z,14.07
2023-03-02T17:57:57.002Z,14.23
2023-03-02T18:00:24.172Z,16.20
2023-03-02T18:02:51.702Z,14.43
2023-03-02T18:05:18.999Z,14.83
2023-03-02T18:07:45.637Z,14.43
2023-03-02T18:10:12.796Z,14.40
2023-03-02T18:12:39.548Z,15.67
2023-03-02T18:15:06.977Z,17.00
2023-03-02T18:17:33.814Z,16.37
2023-03-02T18:20:00.498Z,16.43
2023-03-02T18:22:27.173Z,17.60
2023-03-02T18:24:53.912Z,16.20
2023-03-02T18:27:20.691Z,17.63
2023-03-02T18:29:47.407Z,17.20
2023-03-02T18:32:14.347Z,17.73
2023-03-02T18:34:41.138Z,18.70
2023-03-02T18:37:07.800Z,19.03
2023-03-02T18:39:35.254Z,17.60
2023-03-02T18:42:01.862Z,16.20
2023-03-02T18:44:31.107Z,17.00
2023-03-02T18:46:58.740Z,18.07
2023-03-02T18:49:25.566Z,16.60
2023-03-02T18:51:53.010Z,18.10
2023-03-02T18:54:19.681Z,17.33
2023-03-02T18:56:46.776Z,16.83
2023-03-02T18:59:13.976Z,15.83
2023-03-02T19:01:40.678Z,15.47
2023-03-02T19:04:07.326Z,18.17
2023-03-02T19:06:34.358Z,17.73
2023-03-02T19:09:01.238Z,15.10
2023-03-02T19:11:27.997Z,18.77
2023-03-02T19:13:54.912Z,17.40
2023-03-02T19:16:21.718Z,17.40
2023-03-02T19:18:48.796Z,17.33
2023-03-02T19:21:16.305Z,20.53
2023-03-02T19:23:44.545Z,26.83
2023-03-02T19:26:12.443Z,23.53
2023-03-02T19:28:42.200Z,19.37
2023-03-02T19:31:11.133Z,18.13
2023-03-02T19:33:38.582Z,17.60
2023-03-02T19:36:06.021Z,18.67
2023-03-02T19:38:33.053Z,21.10
2023-03-02T19:41:00.826Z,19.70
2023-03-02T19:43:28.154Z,22.50
2023-03-02T19:45:55.078Z,22.43
2023-03-02T19:48:21.853Z,21.70
2023-03-02T19:50:48.654Z,21.53
2023-03-02T19:53:36.218Z,19.07
2023-03-02T19:56:07.202Z,17.97
2023-03-02T19:58:35.412Z,19.50
2023-03-02T20:01:04.030Z,19.70
2023-03-02T20:03:30.954Z,17.77
2023-03-02T20:05:58.928Z,17.43
2023-03-02T20:08:25.585Z,18.17
2023-03-02T20:10:52.283Z,15.83
2023-03-02T20:13:19.068Z,16.67
2023-03-02T20:15:47.792Z,17.10
2023-03-02T20:18:17.331Z,16.40
2023-03-02T20:20:45.282Z,17.90
2023-03-02T20:23:13.738Z,16.40
2023-03-02T20:25:41.328Z,16.00
2023-03-02T20:28:11.812Z,17.33
2023-03-02T20:30:51.576Z,17.73
2023-03-02T20:33:20.445Z,18.90
2023-03-02T20:35:47.858Z,20.03
2023-03-02T20:38:23.830Z,19.07
2023-03-02T20:40:50.796Z,20.80
2023-03-02T20:43:17.601Z,17.50
2023-03-02T20:45:44.877Z,17.87
2023-03-02T20:48:11.886Z,19.00
2023-03-02T20:50:39.516Z,17.37
2023-03-02T20:53:07.962Z,19.13
2023-03-02T20:55:35.468Z,19.80
2023-03-02T20:58:05.360Z,19.10
2023-03-02T21:00:35.268Z,20.60
2023-03-02T21:03:02.394Z,21.60
2023-03-02T21:05:30.937Z,21.40
2023-03-02T21:07:58.340Z,52.17
2023-03-02T21:10:32.360Z,23.20
2023-03-02T21:12:59.621Z,23.63
2023-03-02T21:15:27.220Z,21.03
2023-03-02T21:17:55.484Z,20.07
2023-03-02T21:20:25.183Z,20.63
2023-03-02T21:22:51.930Z,20.30
2023-03-02T21:25:19.101Z,20.60
2023-03-02T21:27:46.145Z,20.60
2023-03-02T21:30:17.823Z,20.83
2023-03-02T21:32:45.595Z,19.70
2023-03-02T21:35:14.941Z,20.53
2023-03-02T21:37:43.248Z,20.70
2023-03-02T21:40:15.672Z,18.37
2023-03-02T21:42:42.488Z,19.00
2023-03-02T21:45:10.586Z,20.37
2023-03-02T21:47:39.511Z,20.50
2023-03-02T21:50:06.781Z,20.53
2023-03-02T21:52:33.493Z,20.33
2023-03-02T21:55:00.174Z,20.33
2023-03-02T21:57:26.830Z,20.13
2023-03-02T21:59:54.751Z,20.20
2023-03-02T22:02:21.408Z,18.40
2023-03-02T22:04:48.027Z,19.67
2023-03-02T22:07:14.779Z,20.80
2023-03-02T22:09:41.481Z,20.20
2023-03-02T22:12:13.451Z,20.80
2023-03-02T22:14:40.124Z,21.13
2023-03-02T22:17:17.824Z,23.50
2023-03-02T22:19:45.979Z,34.27
2023-03-02T22:22:18.860Z,30.30
2023-03-02T22:24:49.329Z,23.60
2023-03-02T22:27:23.918Z,19.13
2023-03-02T22:29:53.379Z,18.70
2023-03-02T22:32:37.233Z,16.93
2023-03-02T22:35:27.317Z,16.00
2023-03-02T22:38:07.299Z,14.60
2023-03-02T22:40:36.133Z,16.23
2023-03-02T22:43:15.904Z,15.40
2023-03-02T22:45:42.856Z,16.90
2023-03-02T22:48:19.331Z,15.93
2023-03-02T22:50:48.231Z,16.73
2023-03-02T22:53:32.794Z,17.17
2023-03-02T22:56:02.007Z,16.27
2023-03-02T22:58:43.989Z,18.00
2023-03-02T23:01:21.109Z,15.57
2023-03-02T23:04:08.117Z,18.53
2023-03-02T23:06:45.286Z,18.20
2023-03-02T23:09:16.348Z,18.80
2023-03-02T23:11:43.853Z,18.80
2023-03-02T23:14:21.179Z,17.00
2023-03-02T23:17:00.302Z,17.83
2023-03-02T23:19:31.593Z,18.33
2023-03-02T23:21:58.417Z,20.60
2023-03-02T23:24:25.409Z,18.20
2023-03-02T23:26:52.933Z,16.43
2023-03-02T23:29:23.062Z,15.90
2023-03-02T23:31:50.174Z,17.43
2023-03-02T23:34:16.978Z,14.30
2023-03-02T23:36:43.743Z,13.73
2023-03-02T23:39:10.836Z,13.67
2023-03-02T23:41:38.764Z,12.47
2023-03-02T23:44:07.031Z,14.70
2023-03-02T23:46:34.404Z,15.03
2023-03-02T23:49:01.230Z,15.60
2023-03-02T23:51:28.048Z,13.23
2023-03-02T23:53:56.106Z,15.50
2023-03-02T23:56:23.345Z,16.13
2023-03-02T23:58:50.415Z,15.10
